Flight Track Log - Related Links

Times and Time Zones

All times are in EDT time to prevent confusion due to time zone crossing. See the DAL3794 flight status page for this flight to view local times or setup timezone preferences in your user account.

Time Position Orientation Groundspeed Altitude Reporting Facility
EDT Latitude Longitude Course Direction KTS MPH feet Rate Location/Type
Fri 03:27:09 PM 40.5314 -80.1706 33° Northeast 248 285 3,300  Level Cleveland Center
Fri 03:28:00 PM 40.5364 -80.4987 285° West  Level FlightAware Approximate
Fri 03:28:09 PM 40.5483 -80.2497 286° West 256 295 6,100  Level Cleveland Center
Fri 03:29:00 PM 40.5552 -80.5925 285° West  Level FlightAware Approximate
Fri 03:29:09 PM 40.5653 -80.3453 283° West 256 295 8,900  Level Cleveland Center
Fri 03:30:00 PM 40.5740 -80.6863 285° West  Level FlightAware Approximate
Fri 03:30:09 PM 40.5842 -80.4519 283° West 270 311 10,800  Level Cleveland Center
Fri 03:31:00 PM 40.5963 -80.7786 291° West  Level FlightAware Approximate
Fri 03:31:09 PM 40.6156 -80.5831 288° West 309 356 11,800  Level Cleveland Center
Fri 03:32:09 PM 40.6694 -80.7008 301° West 362 417 13,300 1,450 Climbing Cleveland Center
Fri 03:33:09 PM 40.7256 -80.8022 306° West 375 432 14,700 1,300 Climbing Cleveland Center
Fri 03:34:09 PM 40.7711 -80.9286 295° West 380 437 15,900 1,350 Climbing Cleveland Center
Fri 03:35:09 PM 40.8144 -81.0769 291° West 390 449 17,400 1,100 Climbing Cleveland Center
Fri 03:36:09 PM 40.8703 -81.1981 301° West 390 449 18,100 850 Climbing Cleveland Center
Fri 03:37:09 PM 40.9319 -81.3169 304° West 395 455 19,100 950 Climbing Cleveland Center
Fri 03:38:09 PM 40.9917 -81.4358 304° West 395 455 20,000 450 Climbing Cleveland Center
Fri 03:39:09 PM 41.0469 -81.5439 304° West 395 455 20,000  Level Cleveland Center
Fri 03:40:09 PM 41.1064 -81.6633 303° West 395 455 20,000  Level Cleveland Center
Fri 03:41:09 PM 41.1719 -81.7803 307° West 395 455 20,000  Level Cleveland Center
Fri 03:42:09 PM 41.2311 -81.9000 303° West 395 455 20,000  Level Cleveland Center
Fri 03:43:09 PM 41.2900 -82.0200 303° West 395 455 20,000  Level Cleveland Center
Fri 03:44:09 PM 41.3531 -82.1542 302° West 395 455 20,000  Level Cleveland Center
Fri 03:45:09 PM 41.4203 -82.2667 309° West 395 455 20,000 -450 Level Cleveland Center
Fri 03:46:09 PM 41.4872 -82.3794 308° West 395 455 19,100 -1,550 Descending Cleveland Center
Fri 03:47:09 PM 41.5542 -82.4894 309° West 389 448 16,900 -2,250 Descending Cleveland Center
Fri 03:48:09 PM 41.6211 -82.6025 308° West 384 442 14,600 -2,350 Descending Cleveland Center
Fri 03:49:09 PM 41.6797 -82.7044 308° West 372 428 12,200 -1,714 Descending Cleveland Center
Fri 03:49:40 PM 41.7122 -82.7528 312° West 313 360 12,000 -375 Descending Cleveland Center
Fri 03:50:29 PM 41.7567 -82.8183 312° West 282 325 11,700 -674 Descending Cleveland Center
Fri 03:51:09 PM 41.7933 -82.8614 319° Northwest 299 344 11,000 -1,020 Descending Cleveland Center
Fri 03:52:09 PM 41.8397 -82.9411 308° West 278 320 10,000 -1,000 Descending Cleveland Center
Fri 03:53:09 PM 41.8669 -83.0397 290° West 278 320 9,000 -1,000 Descending Cleveland Center
Fri 03:54:09 PM 41.8983 -83.1331 294° West 273 314 8,000 -1,000 Descending Cleveland Center
Fri 03:55:09 PM 41.9381 -83.2211 301° West 278 320 7,000 -1,250 Descending Cleveland Center
Fri 03:56:09 PM 41.9736 -83.3064 299° West 278 320 5,500 -1,550 Descending Cleveland Center
Fri 03:57:09 PM 42.0153 -83.3919 303° West 272 313 3,900 -1,270 Descending Cleveland Center
Fri 03:58:26 PM 42.0956 -83.4264 342° North 236 272 2,600 -870 Descending Cleveland Center
Fri 03:59:27 PM 42.1422 -83.3947 27° Northeast 167 192 1,900 -750 Descending Cleveland Center
Fri 04:00:34 PM 42.1806 -83.3656 29° Northeast 139 160 1,000 -806 Descending Cleveland Center

Login

Don't have an account? Register now (free) for customized features, flight alerts, and more!